Parryville, Pennsylvania
Current Conditions -  °F | °C
As of 8:51 PM on Wednesday 26 Nov 2014 (Local Time) from KABE Reporting Station
Overcast Overcast  
Wind Chill: 27°   Ceiling: 6000
Heat Index: 35°   Visibility: 10mi
Dew Point: 29°   Wind: 10mph
Humidity: 78%   Direction: 340°NNW
Pressure: 29.87"   Gusts: NA
Location:  40.82°N, 75.67°W
Report Text: KABE 270151Z 34009KT 10SM BKN060 OVC090 02/M02 A2987 RMK AO2 UPB0053E0059SNE0053B0059E34 SLP119 P0000 T00171017 $
Loading
Personal Weather Stations






























Interactive Weather Map New forecast layout! Learn more

10-Day Weather Forecast

Advertisements
Track Severe Weather on mobile